Time;durP1;ratioP1;P1;durP2;ratioP2;P2;SDS_P1;SDS_P2;PMS_P1;PMS_P2;Temp;Humidity;BMP_temperature;BMP_pressure;BME280_temperature;BME280_humidity;BME280_pressure;Samples;Min_cycle;Max_cycle;Signal;HPM_P1;HPM_P2
2023/10/08 00:01:03;;;;;;;1.30;0.40;;;20.20;99.90;;;;;;5037012;28;20481;-75
2023/10/08 00:03:29;;;;;;;0.88;0.60;;;20.90;99.90;;;;;;5035751;28;20033;-75
2023/10/08 00:05:56;;;;;;;1.75;0.55;;;20.40;99.90;;;;;;5036552;28;20115;-75
2023/10/08 00:08:22;;;;;;;0.57;0.40;;;20.40;99.90;;;;;;5020151;28;20048;-74
2023/10/08 00:10:48;;;;;;;1.20;0.60;;;20.60;99.90;;;;;;5019249;28;20071;-75
2023/10/08 00:13:17;;;;;;;1.23;0.70;;;20.70;99.90;;;;;;5036408;28;20504;-75
2023/10/08 00:15:52;;;;;;;2.55;0.65;;;20.10;99.90;;;;;;5019664;28;20033;-75
2023/10/08 00:18:22;;;;;;;1.10;0.60;;;20.00;99.90;;;;;;5036153;28;20037;-75
2023/10/08 00:20:57;;;;;;;1.95;0.70;;;20.40;99.90;;;;;;5019778;28;20484;-75
2023/10/08 00:23:26;;;;;;;2.20;0.63;;;;;;;;;;5019317;28;20040;-75
2023/10/08 00:25:54;;;;;;;2.95;0.60;;;20.10;99.90;;;;;;5036474;28;20033;-75
2023/10/08 00:28:21;;;;;;;3.15;0.95;;;20.20;99.90;;;;;;5035929;28;20040;-74
2023/10/08 00:30:47;;;;;;;1.27;0.60;;;20.10;99.90;;;;;;5035489;28;20524;-75
2023/10/08 00:33:14;;;;;;;4.30;0.65;;;20.80;99.90;;;;;;5036056;28;20576;-75
2023/10/08 00:35:41;;;;;;;1.52;0.80;;;20.60;99.90;;;;;;5035550;28;20385;-75
2023/10/08 00:38:20;;;;;;;2.45;0.60;;;20.50;99.90;;;;;;5035806;28;20045;-75
2023/10/08 00:40:46;;;;;;;1.67;0.60;;;20.30;99.90;;;;;;5035866;28;20052;-76
2023/10/08 00:43:35;;;;;;;3.08;0.43;;;19.90;99.90;;;;;;5035300;28;20033;-75
2023/10/08 00:46:06;;;;;;;2.03;0.60;;;19.90;99.90;;;;;;5035911;28;20508;-76
2023/10/08 00:48:37;;;;;;;1.30;0.50;;;20.60;99.90;;;;;;5035212;28;20163;-75
2023/10/08 00:51:25;;;;;;;2.35;0.65;;;20.00;99.90;;;;;;5035983;28;20116;-75
2023/10/08 00:54:10;;;;;;;0.70;0.70;;;20.00;99.90;;;;;;5035236;28;20726;-75
2023/10/08 00:59:22;;;;;;;1.05;0.60;;;20.00;99.90;;;;;;5034619;28;20041;-75
2023/10/08 01:01:54;;;;;;;1.77;0.68;;;20.40;99.90;;;;;;5035493;28;20037;-75
2023/10/08 01:04:23;;;;;;;2.28;0.80;;;20.60;99.90;;;;;;5034787;28;20132;-75
2023/10/08 01:06:56;;;;;;;1.30;0.68;;;20.00;99.90;;;;;;5019276;28;20404;-75
2023/10/08 01:09:31;;;;;;;3.53;1.08;;;;;;;;;;5035123;28;20037;-75
2023/10/08 01:12:14;;;;;;;4.00;0.73;;;19.90;99.90;;;;;;5018352;28;20037;-75
2023/10/08 01:14:43;;;;;;;4.13;0.75;;;;;;;;;;5018565;28;20442;-75
2023/10/08 01:17:15;;;;;;;4.35;2.03;;;20.40;99.90;;;;;;5035089;28;20048;-75
2023/10/08 01:19:50;;;;;;;1.98;0.80;;;19.80;99.90;;;;;;5035121;28;20083;-75
2023/10/08 01:22:18;;;;;;;3.47;0.77;;;20.10;99.90;;;;;;5034664;28;20037;-75
2023/10/08 01:24:48;;;;;;;1.63;0.70;;;20.70;99.90;;;;;;5034739;28;20095;-75
2023/10/08 01:27:20;;;;;;;6.13;1.30;;;20.60;99.90;;;;;;5035325;28;20106;-75
2023/10/08 01:29:46;;;;;;;6.30;0.85;;;20.50;99.90;;;;;;5034628;28;20040;-75
2023/10/08 01:32:16;;;;;;;2.95;0.70;;;19.90;99.90;;;;;;5018428;28;20072;-75
2023/10/08 01:34:45;;;;;;;4.07;0.85;;;;;;;;;;5035185;28;20103;-75
2023/10/08 01:37:16;;;;;;;1.45;0.70;;;20.50;99.90;;;;;;5035126;28;20044;-75
2023/10/08 01:39:43;;;;;;;3.20;0.90;;;;;;;;;;5035636;28;20571;-75
2023/10/08 01:42:17;;;;;;;2.60;0.93;;;20.50;99.90;;;;;;5033963;28;20151;-75
2023/10/08 01:44:51;;;;;;;0.85;0.57;;;20.70;99.90;;;;;;5034735;28;20062;-75
2023/10/08 01:47:17;;;;;;;5.13;0.90;;;20.40;99.90;;;;;;5034704;28;20033;-75
2023/10/08 01:49:44;;;;;;;1.98;0.80;;;20.70;99.90;;;;;;5017313;28;20037;-75
2023/10/08 01:52:29;;;;;;;1.75;0.60;;;20.80;99.90;;;;;;5034591;28;20508;-75
2023/10/08 01:54:55;;;;;;;2.15;0.57;;;20.50;99.90;;;;;;5034620;28;20056;-75
2023/10/08 01:57:20;;;;;;;2.30;0.85;;;20.70;99.90;;;;;;5034523;28;20048;-75
2023/10/08 01:59:46;;;;;;;1.95;0.60;;;;;;;;;;5034404;28;20045;-75
2023/10/08 02:02:14;;;;;;;1.27;0.73;;;19.80;99.90;;;;;;5017316;28;20051;-75
2023/10/08 02:04:40;;;;;;;2.00;0.47;;;;;;;;;;5017722;28;20044;-75
2023/10/08 02:07:08;;;;;;;2.80;0.70;;;20.70;99.90;;;;;;5017915;28;20044;-75
2023/10/08 02:09:34;;;;;;;3.55;0.70;;;20.70;99.90;;;;;;5033995;28;20486;-75
2023/10/08 02:12:00;;;;;;;2.25;0.50;;;20.60;99.90;;;;;;5033655;28;20045;-75
2023/10/08 02:14:25;;;;;;;4.30;0.65;;;20.30;99.90;;;;;;5033919;28;20047;-75
2023/10/08 02:16:56;;;;;;;5.90;1.38;;;20.80;99.90;;;;;;5034009;28;20037;-75
2023/10/08 02:19:26;;;;;;;4.53;1.55;;;20.10;99.90;;;;;;5033713;28;20090;-75
2023/10/08 02:21:57;;;;;;;3.80;0.65;;;20.80;99.90;;;;;;5017119;28;20032;-75
2023/10/08 02:24:24;;;;;;;3.40;0.70;;;20.00;99.90;;;;;;5033683;28;20408;-75
2023/10/08 02:26:57;;;;;;;3.28;0.68;;;20.10;99.90;;;;;;5033919;28;20083;-75
2023/10/08 02:29:25;;;;;;;;;;;20.40;99.90;;;;;;5033649;28;20037;-75
2023/10/08 02:31:50;;;;;;;3.35;0.70;;;20.20;99.90;;;;;;5017386;28;19963;-75
2023/10/08 02:34:16;;;;;;;0.95;0.47;;;20.20;99.90;;;;;;5034192;28;20519;-75
2023/10/08 02:36:41;;;;;;;2.72;0.85;;;20.80;99.90;;;;;;5033418;28;20428;-75
2023/10/08 02:39:16;;;;;;;3.17;0.80;;;20.40;99.90;;;;;;5033441;28;20047;-75
2023/10/08 02:41:45;;;;;;;3.10;1.15;;;20.10;99.90;;;;;;5049581;28;20048;-75
2023/10/08 02:44:12;;;;;;;3.85;0.80;;;20.70;99.90;;;;;;5021740;28;20072;-75
2023/10/08 02:46:48;;;;;;;3.00;0.80;;;20.00;99.90;;;;;;5033490;28;20036;-74
2023/10/08 02:49:19;;;;;;;1.27;0.70;;;20.70;99.90;;;;;;5033540;28;20116;-75
2023/10/08 02:51:46;;;;;;;4.03;0.70;;;20.60;99.90;;;;;;5033684;28;20045;-75
2023/10/08 02:54:23;;;;;;;3.10;0.80;;;;;;;;;;5033255;28;20044;-75
2023/10/08 02:56:51;;;;;;;2.28;0.60;;;20.30;99.90;;;;;;5033663;28;20052;-75
2023/10/08 02:59:21;;;;;;;3.05;0.80;;;20.20;99.90;;;;;;5033353;28;20041;-75
2023/10/08 03:01:49;;;;;;;5.75;0.90;;;20.10;99.90;;;;;;5016813;28;20037;-75
2023/10/08 03:04:18;;;;;;;2.45;0.73;;;20.60;99.90;;;;;;5035716;28;20041;-74
2023/10/08 03:06:54;;;;;;;1.67;0.73;;;21.00;99.90;;;;;;5045542;28;20052;-74
2023/10/08 03:09:23;;;;;;;2.38;0.90;;;20.60;99.90;;;;;;5045598;28;20040;-75
2023/10/08 03:11:50;;;;;;;3.13;0.80;;;20.70;99.90;;;;;;5041897;28;20036;-74
2023/10/08 03:14:21;;;;;;;1.52;0.90;;;20.90;99.90;;;;;;5021096;28;20043;-75
2023/10/08 03:17:07;;;;;;;4.13;1.02;;;20.10;99.90;;;;;;5016619;28;20033;-75
2023/10/08 03:19:32;;;;;;;2.22;1.45;;;20.30;99.90;;;;;;5032910;28;20476;-75
2023/10/08 03:21:58;;;;;;;4.40;0.98;;;20.70;99.90;;;;;;5018336;28;20075;-75
2023/10/08 03:24:48;;;;;;;9.45;1.13;;;20.20;99.90;;;;;;5020626;28;20412;-75
2023/10/08 03:27:15;;;;;;;3.05;1.02;;;;;;;;;;5036439;28;20497;-75
2023/10/08 03:29:44;;;;;;;2.08;0.85;;;21.00;99.90;;;;;;5037368;28;20084;-75
2023/10/08 03:32:17;;;;;;;3.10;0.77;;;20.60;99.90;;;;;;5020090;28;20389;-75
2023/10/08 03:34:47;;;;;;;6.70;1.33;;;20.80;99.90;;;;;;5037255;28;20033;-75
2023/10/08 03:37:20;;;;;;;3.42;0.90;;;20.20;99.90;;;;;;5020345;28;20037;-75
2023/10/08 03:40:21;;;;;;;5.07;0.75;;;20.60;99.90;;;;;;5020155;28;20045;-75
2023/10/08 03:42:49;;;;;;;3.40;0.93;;;20.80;99.90;;;;;;5036315;28;20124;-75
2023/10/08 03:45:22;;;;;;;3.08;0.75;;;;;;;;;;5036619;28;20049;-75
2023/10/08 03:48:03;;;;;;;2.70;0.90;;;20.60;99.90;;;;;;5020506;28;20044;-75
2023/10/08 03:50:42;;;;;;;4.30;1.10;;;;;;;;;;5019940;28;20404;-75
2023/10/08 03:53:13;;;;;;;5.55;1.10;;;20.20;99.90;;;;;;5037167;28;20052;-75
2023/10/08 03:55:42;;;;;;;2.03;0.88;;;20.70;99.90;;;;;;5019937;28;20501;-75
2023/10/08 03:58:27;;;;;;;1.55;0.93;;;20.30;99.90;;;;;;5020280;28;20033;-75
2023/10/08 04:01:08;;;;;;;4.55;0.98;;;20.30;99.90;;;;;;5036208;28;20052;-75
2023/10/08 04:06:22;;;;;;;2.38;0.90;;;20.30;99.90;;;;;;5036289;28;20056;-75
2023/10/08 04:11:35;;;;;;;1.95;0.75;;;20.80;99.90;;;;;;5035984;28;20083;-75
2023/10/08 04:14:02;;;;;;;3.58;1.10;;;20.70;99.90;;;;;;5019370;28;20048;-74
2023/10/08 04:16:28;;;;;;;3.00;1.38;;;20.80;99.90;;;;;;5036090;28;20040;-75
2023/10/08 04:19:03;;;;;;;6.70;1.77;;;20.00;99.90;;;;;;5035819;28;20120;-75
2023/10/08 04:21:29;;;;;;;2.75;1.17;;;20.60;99.90;;;;;;5035981;28;20065;-75
2023/10/08 04:23:57;;;;;;;4.47;0.90;;;20.60;99.90;;;;;;5036098;28;20079;-75
2023/10/08 04:26:26;;;;;;;2.95;1.27;;;;;;;;;;5036082;28;20110;-75
2023/10/08 04:29:02;;;;;;;3.63;1.08;;;20.80;99.90;;;;;;5019614;28;20077;-75
2023/10/08 04:31:38;;;;;;;2.63;0.85;;;20.20;99.90;;;;;;5019777;28;20493;-75
2023/10/08 04:34:17;;;;;;;4.32;1.38;;;20.30;99.90;;;;;;5034786;28;20565;-75
2023/10/08 04:36:45;;;;;;;6.68;1.20;;;20.20;99.90;;;;;;5036261;28;20404;-75
2023/10/08 04:39:21;;;;;;;3.20;0.88;;;19.90;99.90;;;;;;5035413;28;20451;-75
2023/10/08 04:41:53;;;;;;;1.77;0.95;;;;;;;;;;5035819;28;20499;-75
2023/10/08 04:44:19;;;;;;;2.22;1.02;;;20.80;99.90;;;;;;5019527;28;20033;-75
2023/10/08 04:49:26;;;;;;;5.22;1.08;;;20.80;99.90;;;;;;5035924;28;20059;-75
2023/10/08 04:51:56;;;;;;;3.30;1.35;;;;;;;;;;5037921;28;20099;-75
2023/10/08 04:54:22;;;;;;;2.70;0.90;;;20.70;99.90;;;;;;5038858;28;20119;-75
2023/10/08 04:56:49;;;;;;;6.63;1.45;;;;;;;;;;5050908;28;20127;-75
2023/10/08 04:59:14;;;;;;;2.25;1.02;;;20.40;99.90;;;;;;5038579;28;20480;-75
2023/10/08 05:02:12;;;;;;;3.13;1.00;;;20.20;99.90;;;;;;5035295;28;20129;-75
2023/10/08 05:04:47;;;;;;;3.08;1.20;;;;;;;;;;5035896;28;20048;-76
2023/10/08 05:15:32;;;;;;;2.92;1.10;;;;;;;;;;5035482;28;20444;-75
2023/10/08 05:18:09;;;;;;;4.65;1.10;;;20.70;99.90;;;;;;5041868;28;20040;-75
2023/10/08 05:23:20;;;;;;;6.32;1.48;;;20.00;99.90;;;;;;5037406;28;20036;-74
2023/10/08 05:29:00;;;;;;;4.00;1.05;;;20.20;99.90;;;;;;5054795;28;20130;-75
2023/10/08 05:31:46;;;;;;;3.67;1.00;;;19.90;99.90;;;;;;5049283;28;20044;-74
2023/10/08 05:34:32;;;;;;;3.88;1.23;;;20.10;99.90;;;;;;5040367;28;20504;-75
2023/10/08 05:39:40;;;;;;;5.45;1.38;;;;;;;;;;5052363;28;20140;-74
2023/10/08 05:53:15;;;;;;;6.10;1.50;;;19.90;99.90;;;;;;5050544;28;20049;-75
2023/10/08 05:55:34;;;;;;;5.97;1.65;;;20.50;99.90;;;;;;5053484;28;20052;-75
2023/10/08 05:58:14;;;;;;;1.95;1.17;;;20.50;99.90;;;;;;5052580;28;20081;-75
2023/10/08 06:01:29;;;;;;;6.88;1.10;;;20.00;99.90;;;;;;5035519;28;20415;-74
2023/10/08 06:03:37;;;;;;;4.80;1.30;;;20.70;99.90;;;;;;5050850;28;20098;-74
2023/10/08 06:08:52;;;;;;;4.97;1.67;;;20.80;99.90;;;;;;5054142;28;20644;-74
2023/10/08 06:11:36;;;;;;;5.78;1.40;;;20.60;99.90;;;;;;5053778;28;20036;-74
2023/10/08 06:14:11;;;;;;;7.07;1.20;;;20.50;99.90;;;;;;5050878;28;20086;-72
2023/10/08 06:16:43;;;;;;;4.75;1.75;;;20.70;99.90;;;;;;5036586;28;20071;-75
2023/10/08 06:19:10;;;;;;;7.97;1.60;;;20.60;99.90;;;;;;5053534;28;20075;-75
2023/10/08 06:21:39;;;;;;;7.65;1.63;;;20.90;99.90;;;;;;5037021;28;20072;-75
2023/10/08 06:24:09;;;;;;;7.25;2.10;;;20.20;99.90;;;;;;5053821;28;20403;-75
2023/10/08 06:26:48;;;;;;;8.68;1.85;;;20.40;99.90;;;;;;5053375;28;20039;-74
2023/10/08 06:29:27;;;;;;;5.72;1.40;;;20.00;99.90;;;;;;5051907;28;20086;-75
2023/10/08 06:31:55;;;;;;;9.10;1.80;;;20.70;99.90;;;;;;5051014;28;20119;-74
2023/10/08 06:34:22;;;;;;;4.00;1.48;;;20.70;99.90;;;;;;5053434;28;20067;-74
2023/10/08 06:36:53;;;;;;;5.25;1.77;;;20.80;99.90;;;;;;5053358;28;20028;-75
2023/10/08 06:39:33;;;;;;;3.88;1.23;;;20.60;99.90;;;;;;5053249;28;20033;-75
2023/10/08 06:41:59;;;;;;;5.00;1.38;;;20.00;99.90;;;;;;5051251;28;20068;-74
2023/10/08 06:44:26;;;;;;;6.55;1.35;;;;;;;;;;5052284;28;20040;-74
2023/10/08 06:46:54;;;;;;;4.88;1.90;;;19.90;99.90;;;;;;5052904;28;20509;-74
2023/10/08 06:49:23;;;;;;;4.47;1.88;;;21.10;99.90;;;;;;5053380;28;20063;-74
2023/10/08 06:51:50;;;;;;;7.43;1.90;;;;;;;;;;5052442;28;20043;-75
2023/10/08 06:54:17;;;;;;;6.30;1.70;;;20.70;99.90;;;;;;5036345;28;20495;-75
2023/10/08 06:56:46;;;;;;;5.03;2.00;;;20.10;99.90;;;;;;5036600;28;20496;-75
2023/10/08 06:59:16;;;;;;;7.60;1.45;;;20.40;99.90;;;;;;5034562;28;20040;-75
2023/10/08 07:01:45;;;;;;;5.57;1.90;;;20.10;99.90;;;;;;5053400;28;20036;-74
2023/10/08 07:04:12;;;;;;;5.90;1.50;;;20.90;99.90;;;;;;5052765;28;20063;-74
2023/10/08 07:06:42;;;;;;;7.00;1.33;;;20.60;99.90;;;;;;5052703;28;20037;-74
2023/10/08 07:09:56;;;;;;;5.22;1.70;;;20.70;99.90;;;;;;5036263;28;20076;-74
2023/10/08 07:12:05;;;;;;;7.47;1.58;;;20.40;99.90;;;;;;5039608;28;20420;-74
2023/10/08 07:14:31;;;;;;;9.48;2.13;;;20.80;99.90;;;;;;5036658;28;20037;-74
2023/10/08 07:16:59;;;;;;;5.35;1.70;;;20.70;99.90;;;;;;5046262;28;20083;-74
2023/10/08 07:19:36;;;;;;;8.45;1.90;;;20.50;99.90;;;;;;5033504;28;20445;-74
2023/10/08 07:22:21;;;;;;;6.75;2.20;;;21.00;99.90;;;;;;5033293;28;20052;-74
2023/10/08 07:24:50;;;;;;;5.85;1.60;;;20.30;99.90;;;;;;5017048;28;20041;-74
2023/10/08 07:27:29;;;;;;;7.18;1.80;;;20.30;99.90;;;;;;5033726;28;20444;-74
2023/10/08 07:29:55;;;;;;;10.38;1.50;;;20.20;99.90;;;;;;5035706;28;20170;-74
2023/10/08 07:32:21;;;;;;;4.88;1.80;;;20.60;99.90;;;;;;5035454;28;20524;-74
2023/10/08 07:34:47;;;;;;;5.93;1.83;;;;;;;;;;5035138;28;20037;-74
2023/10/08 07:37:15;;;;;;;5.55;1.77;;;20.70;99.90;;;;;;5017135;28;20057;-74
2023/10/08 07:39:46;;;;;;;7.18;1.65;;;;;;;;;;5033318;28;20615;-74
2023/10/08 07:42:12;;;;;;;8.63;1.65;;;;;;;;;;5033304;28;20401;-74
2023/10/08 07:44:38;;;;;;;11.18;1.98;;;;;;;;;;5033245;28;20048;-74
2023/10/08 07:47:11;;;;;;;8.48;1.90;;;20.70;99.90;;;;;;5016837;28;20041;-75
2023/10/08 07:49:37;;;;;;;7.03;1.73;;;;;;;;;;5017160;28;20518;-75
2023/10/08 07:52:06;;;;;;;9.75;1.90;;;21.10;99.90;;;;;;5033369;28;20051;-74
2023/10/08 07:54:34;;;;;;;7.75;1.60;;;20.50;99.90;;;;;;5048561;28;20036;-74
2023/10/08 07:57:10;;;;;;;6.25;1.50;;;20.70;99.90;;;;;;5053197;28;20045;-74
2023/10/08 07:59:46;;;;;;;8.40;1.70;;;;;;;;;;5052953;28;20121;-75
2023/10/08 08:02:14;;;;;;;6.25;1.50;;;20.60;99.90;;;;;;5036388;28;20642;-73
2023/10/08 08:04:43;;;;;;;6.57;1.67;;;21.20;99.90;;;;;;5035281;28;20036;-75
2023/10/08 08:07:15;;;;;;;6.32;1.30;;;21.10;99.90;;;;;;5041609;28;20063;-75
2023/10/08 08:09:50;;;;;;;5.78;1.10;;;21.00;99.90;;;;;;5054751;28;20087;-74
2023/10/08 08:12:17;;;;;;;10.13;2.67;;;21.30;99.90;;;;;;5037498;28;20070;-74
2023/10/08 08:14:43;;;;;;;8.80;1.70;;;21.30;99.90;;;;;;5056266;28;20474;-74
2023/10/08 08:17:14;;;;;;;8.63;2.20;;;21.50;99.90;;;;;;5055754;28;20037;-74
2023/10/08 08:19:47;;;;;;;7.65;2.20;;;21.30;99.90;;;;;;5056322;28;20041;-74
2023/10/08 08:22:23;;;;;;;8.13;2.75;;;;;;;;;;5055938;28;20058;-73
2023/10/08 08:24:55;;;;;;;7.18;1.70;;;21.40;99.90;;;;;;5056263;28;20127;-74
2023/10/08 08:27:23;;;;;;;8.07;1.85;;;21.30;99.90;;;;;;5039715;28;20043;-74
2023/10/08 08:29:55;;;;;;;4.00;1.38;;;21.60;99.90;;;;;;5056048;28;20540;-74
2023/10/08 08:32:22;;;;;;;10.20;1.73;;;21.50;99.90;;;;;;5056021;28;20032;-74
2023/10/08 08:34:50;;;;;;;12.05;2.42;;;21.00;99.90;;;;;;5056033;28;20044;-74
2023/10/08 08:37:22;;;;;;;5.75;1.30;;;21.20;99.90;;;;;;5055936;28;20049;-74
2023/10/08 08:39:48;;;;;;;5.43;1.23;;;21.30;99.90;;;;;;5053620;28;20041;-74
2023/10/08 08:42:16;;;;;;;5.45;1.40;;;21.50;99.90;;;;;;5055150;28;20067;-73
2023/10/08 08:44:47;;;;;;;6.70;1.33;;;21.00;99.90;;;;;;5052782;28;20024;-74
2023/10/08 08:47:19;;;;;;;3.80;1.10;;;21.70;99.90;;;;;;5055596;28;20078;-74
2023/10/08 08:49:46;;;;;;;4.32;1.27;;;21.60;99.90;;;;;;5055346;28;20076;-74
2023/10/08 08:52:13;;;;;;;5.45;1.40;;;21.80;99.90;;;;;;5055134;28;20037;-74
2023/10/08 08:54:42;;;;;;;5.43;1.45;;;21.80;99.90;;;;;;5052217;28;20056;-74
2023/10/08 08:57:13;;;;;;;6.45;1.35;;;21.80;99.90;;;;;;5055380;28;20093;-74
2023/10/08 08:59:44;;;;;;;10.23;1.80;;;22.00;99.90;;;;;;5055732;28;20044;-74
2023/10/08 09:02:14;;;;;;;4.68;1.50;;;22.10;99.90;;;;;;5055413;28;20492;-74
2023/10/08 09:04:39;;;;;;;6.93;1.70;;;22.30;99.90;;;;;;5055444;28;20070;-74
2023/10/08 09:07:05;;;;;;;6.03;1.60;;;;;;;;;;5055366;28;20440;-74
2023/10/08 09:09:32;;;;;;;10.13;1.60;;;22.00;99.90;;;;;;5055411;28;20098;-74
2023/10/08 09:11:58;;;;;;;6.07;1.85;;;22.20;99.90;;;;;;5038658;28;20040;-74
2023/10/08 09:14:26;;;;;;;12.48;2.05;;;22.10;99.90;;;;;;5039223;28;20059;-74
2023/10/08 09:16:54;;;;;;;3.60;1.20;;;22.30;99.90;;;;;;5055419;28;20047;-74
2023/10/08 09:19:22;;;;;;;7.55;1.75;;;22.20;99.90;;;;;;5055110;28;20570;-75
2023/10/08 09:22:04;;;;;;;5.07;1.38;;;22.60;99.90;;;;;;5054875;28;20036;-74
2023/10/08 09:24:30;;;;;;;4.82;1.15;;;22.20;99.90;;;;;;5037864;28;20094;-75
2023/10/08 09:26:58;;;;;;;7.78;1.88;;;22.40;99.90;;;;;;5054791;28;20040;-75
2023/10/08 09:29:24;;;;;;;5.97;1.50;;;22.40;99.90;;;;;;5054640;28;20568;-74
2023/10/08 09:31:56;;;;;;;5.15;1.30;;;22.50;99.90;;;;;;5054801;28;20127;-75
2023/10/08 09:34:30;;;;;;;6.93;1.65;;;22.60;99.90;;;;;;5054771;28;20048;-74
2023/10/08 09:36:55;;;;;;;;;;;22.60;99.90;;;;;;5055604;28;20076;-75
2023/10/08 09:39:28;;;;;;;5.70;1.27;;;22.50;99.90;;;;;;5054649;28;20017;-74
2023/10/08 09:41:54;;;;;;;7.47;1.87;;;22.50;99.90;;;;;;5038073;28;20503;-75
2023/10/08 09:44:24;;;;;;;8.15;1.50;;;22.70;99.90;;;;;;5054633;28;20354;-73
2023/10/08 09:47:01;;;;;;;8.60;2.03;;;23.00;99.90;;;;;;5054406;28;20400;-75
2023/10/08 09:49:41;;;;;;;6.20;1.33;;;22.80;99.90;;;;;;5054322;28;20044;-74
2023/10/08 09:52:07;;;;;;;5.40;1.30;;;22.90;99.90;;;;;;5053257;28;20044;-74
2023/10/08 09:54:50;;;;;;;8.52;1.83;;;22.70;99.90;;;;;;5054499;28;20032;-75
2023/10/08 09:57:18;;;;;;;9.57;1.98;;;22.60;99.90;;;;;;5051621;28;20122;-75
2023/10/08 09:59:46;;;;;;;5.80;1.20;;;22.80;99.90;;;;;;5054020;28;20036;-75
2023/10/08 10:02:11;;;;;;;6.22;1.23;;;22.70;99.90;;;;;;5054012;28;20223;-74
2023/10/08 10:04:45;;;;;;;8.95;2.83;;;22.60;99.90;;;;;;5037743;28;20488;-75
2023/10/08 10:07:16;;;;;;;12.00;1.50;;;22.70;99.90;;;;;;5053574;28;20034;-74
2023/10/08 10:09:49;;;;;;;8.45;1.40;;;22.80;99.90;;;;;;5036831;28;20112;-75
2023/10/08 10:12:27;;;;;;;6.68;1.50;;;23.00;99.90;;;;;;5068121;28;20519;-75
2023/10/08 10:14:56;;;;;;;8.88;1.27;;;23.10;99.90;;;;;;5053897;28;20041;-75
2023/10/08 10:17:28;;;;;;;6.32;1.40;;;23.20;99.90;;;;;;5054347;28;20051;-75
2023/10/08 10:20:01;;;;;;;12.63;1.57;;;22.90;99.90;;;;;;5053875;28;20504;-75
2023/10/08 10:22:34;;;;;;;6.30;1.55;;;23.00;99.90;;;;;;5054016;28;20403;-74
2023/10/08 10:25:14;;;;;;;;;;;23.20;99.90;;;;;;5054572;28;20040;-75
2023/10/08 10:28:04;;;;;;;6.60;1.95;;;23.10;99.90;;;;;;5054134;28;19922;-75
2023/10/08 10:30:32;;;;;;;7.10;1.35;;;23.10;99.90;;;;;;5053609;28;20040;-75
2023/10/08 10:33:00;;;;;;;9.90;1.50;;;23.00;99.90;;;;;;5053549;28;20467;-74
2023/10/08 10:35:27;;;;;;;7.45;1.65;;;23.10;99.90;;;;;;5037149;28;20037;-76
2023/10/08 10:37:55;;;;;;;7.90;1.60;;;23.10;99.90;;;;;;5053082;28;20035;-75
2023/10/08 10:40:39;;;;;;;10.57;1.60;;;23.20;99.90;;;;;;5053536;28;20052;-76
2023/10/08 10:43:15;;;;;;;9.15;1.88;;;23.50;99.90;;;;;;5037331;28;20036;-75
2023/10/08 10:45:46;;;;;;;8.77;1.45;;;23.40;99.90;;;;;;5053348;28;20039;-76
2023/10/08 10:48:34;;;;;;;7.60;1.63;;;;;;;;;;5053300;28;20036;-76
2023/10/08 10:53:56;;;;;;;6.60;1.65;;;23.70;99.90;;;;;;5053748;28;20048;-75
2023/10/08 10:56:29;;;;;;;9.65;1.95;;;23.50;99.90;;;;;;5053796;28;20377;-76
2023/10/08 10:59:18;;;;;;;11.98;2.05;;;23.50;99.90;;;;;;5053413;28;20048;-75
2023/10/08 11:01:55;;;;;;;11.70;2.17;;;23.50;99.90;;;;;;5052960;28;20032;-75
2023/10/08 11:04:28;;;;;;;8.38;1.92;;;23.50;99.90;;;;;;5052813;28;20040;-76
2023/10/08 11:06:58;;;;;;;6.07;1.45;;;23.60;99.90;;;;;;5036459;28;20040;-77
2023/10/08 11:09:36;;;;;;;10.50;1.83;;;23.70;99.90;;;;;;5052929;28;20032;-76
2023/10/08 11:12:02;;;;;;;9.07;1.50;;;23.40;99.90;;;;;;5053178;28;20066;-76
2023/10/08 11:14:28;;;;;;;5.78;1.60;;;23.50;99.90;;;;;;5052834;28;20045;-75
2023/10/08 11:16:55;;;;;;;7.93;1.98;;;23.70;99.90;;;;;;5052851;28;20083;-75
2023/10/08 11:19:21;;;;;;;6.30;2.20;;;23.60;99.90;;;;;;5052899;28;20028;-75
2023/10/08 11:21:50;;;;;;;7.57;2.15;;;23.60;99.90;;;;;;5036448;28;20506;-75
2023/10/08 11:24:27;;;;;;;9.68;2.50;;;23.50;99.90;;;;;;5052683;28;20036;-75
2023/10/08 11:27:59;;;;;;;10.02;1.58;;;23.70;99.90;;;;;;5053548;28;20411;-75
2023/10/08 11:29:56;;;;;;;5.25;1.70;;;23.70;99.90;;;;;;5035907;28;20170;-75
2023/10/08 11:32:25;;;;;;;8.27;1.25;;;23.90;99.90;;;;;;5052668;28;20036;-75
2023/10/08 11:34:55;;;;;;;10.75;1.85;;;24.00;99.90;;;;;;5052424;28;20041;-75
2023/10/08 11:37:33;;;;;;;6.25;1.55;;;24.20;99.90;;;;;;5036584;28;20051;-75
2023/10/08 11:39:59;;;;;;;11.63;1.80;;;24.20;99.90;;;;;;5036404;28;20090;-75
2023/10/08 11:42:40;;;;;;;5.38;1.40;;;24.10;99.90;;;;;;5052934;28;20040;-75
2023/10/08 11:45:26;;;;;;;7.13;1.30;;;24.00;99.90;;;;;;5056327;28;20539;-75
2023/10/08 11:47:55;;;;;;;9.88;2.28;;;24.10;99.90;;;;;;5056370;28;20392;-75
2023/10/08 11:50:30;;;;;;;9.55;2.00;;;24.10;99.90;;;;;;5039583;28;20043;-75
2023/10/08 11:53:05;;;;;;;9.05;2.10;;;24.10;99.90;;;;;;5053593;28;20047;-75
2023/10/08 11:55:35;;;;;;;12.32;1.98;;;24.20;99.90;;;;;;5044239;28;20055;-75
2023/10/08 11:58:09;;;;;;;5.40;1.30;;;24.10;99.90;;;;;;5039900;28;20082;-75
2023/10/08 12:00:43;;;;;;;7.22;1.70;;;24.00;99.90;;;;;;5056083;28;20115;-75
2023/10/08 12:03:12;;;;;;;7.15;1.50;;;23.90;99.90;;;;;;5054685;28;20610;-75
2023/10/08 12:05:47;;;;;;;7.53;1.38;;;23.80;99.90;;;;;;5056346;28;20381;-75
2023/10/08 12:08:16;;;;;;;9.00;1.70;;;23.90;99.90;;;;;;5056773;28;20082;-75
2023/10/08 12:10:46;;;;;;;7.47;1.60;;;23.90;99.90;;;;;;5039449;28;20051;-75
2023/10/08 12:13:12;;;;;;;7.72;1.77;;;23.80;99.90;;;;;;5055907;28;20234;-75
2023/10/08 12:15:38;;;;;;;5.78;1.30;;;23.80;99.90;;;;;;5056068;28;20415;-75
2023/10/08 12:20:49;;;;;;;11.70;1.92;;;23.90;99.90;;;;;;5055455;28;20037;-75
2023/10/08 12:23:24;;;;;;;7.45;1.77;;;24.00;99.90;;;;;;5039603;28;20036;-75
2023/10/08 12:25:51;;;;;;;5.65;1.40;;;24.00;99.90;;;;;;5056334;28;20036;-75
2023/10/08 12:28:18;;;;;;;7.82;1.73;;;24.00;99.90;;;;;;5056259;28;20047;-75
2023/10/08 12:30:45;;;;;;;5.22;1.20;;;23.90;99.90;;;;;;5055677;28;20036;-75
2023/10/08 12:33:12;;;;;;;7.50;1.30;;;23.90;99.90;;;;;;5056135;28;20126;-75
2023/10/08 12:35:43;;;;;;;4.75;1.55;;;23.80;99.90;;;;;;5055898;28;20057;-75
2023/10/08 12:38:09;;;;;;;10.52;1.38;;;23.60;99.90;;;;;;5039443;28;20051;-75
2023/10/08 12:40:47;;;;;;;5.60;1.17;;;23.70;99.90;;;;;;5055693;28;20048;-75
2023/10/08 12:43:19;;;;;;;6.25;1.27;;;23.80;99.90;;;;;;5055508;28;20036;-75
2023/10/08 12:45:52;;;;;;;9.95;2.10;;;24.00;99.90;;;;;;5055449;28;20040;-75
2023/10/08 12:48:26;;;;;;;9.57;1.10;;;24.00;99.90;;;;;;5047383;28;20107;-75
2023/10/08 12:50:58;;;;;;;7.47;2.70;;;24.00;99.90;;;;;;5055600;28;20051;-75
2023/10/08 12:53:36;;;;;;;6.25;1.33;;;24.10;99.90;;;;;;5055651;28;20115;-75
2023/10/08 12:56:15;;;;;;;6.25;1.80;;;24.00;99.90;;;;;;5038555;28;20089;-75
2023/10/08 12:58:44;;;;;;;2.33;1.20;;;24.50;99.90;;;;;;5055685;28;20040;-75
2023/10/08 13:01:10;;;;;;;4.75;1.10;;;24.20;99.90;;;;;;5055474;28;20454;-75
2023/10/08 13:03:41;;;;;;;5.00;1.58;;;24.30;99.90;;;;;;5055737;28;20051;-75
2023/10/08 13:06:14;;;;;;;6.28;1.40;;;24.50;99.90;;;;;;5039071;28;20508;-75
2023/10/08 13:08:40;;;;;;;8.75;2.00;;;24.60;99.90;;;;;;5039051;28;20045;-75
2023/10/08 13:11:06;;;;;;;4.45;1.33;;;24.30;99.90;;;;;;5055281;28;20105;-75
2023/10/08 13:13:33;;;;;;;5.13;1.50;;;;;;;;;;5055264;28;20490;-75
2023/10/08 13:16:02;;;;;;;7.15;1.33;;;24.20;99.90;;;;;;5055284;28;20048;-75
2023/10/08 13:18:29;;;;;;;4.95;1.20;;;24.00;99.90;;;;;;5055480;28;20052;-75
2023/10/08 13:20:55;;;;;;;4.95;1.08;;;23.80;99.90;;;;;;5037917;28;20033;-75
2023/10/08 13:23:23;;;;;;;5.50;1.10;;;23.80;99.90;;;;;;5055002;28;20085;-75
2023/10/08 13:25:54;;;;;;;5.88;1.40;;;23.80;99.90;;;;;;5054867;28;20534;-75
2023/10/08 13:28:23;;;;;;;4.68;1.13;;;24.80;99.90;;;;;;5054988;28;20037;-75
2023/10/08 13:30:52;;;;;;;4.85;1.08;;;23.70;99.90;;;;;;5054967;28;20052;-75
2023/10/08 13:33:22;;;;;;;4.88;1.10;;;23.70;99.90;;;;;;5038234;28;20051;-74
2023/10/08 13:35:51;;;;;;;4.13;1.10;;;23.60;99.90;;;;;;5054533;28;20047;-75
2023/10/08 13:38:20;;;;;;;5.80;1.65;;;23.80;99.90;;;;;;5054768;28;20068;-75
2023/10/08 13:41:02;;;;;;;6.25;1.15;;;23.80;99.90;;;;;;5054616;28;20045;-75
2023/10/08 13:43:33;;;;;;;4.60;1.45;;;23.70;99.90;;;;;;5054736;28;20569;-75
2023/10/08 13:46:04;;;;;;;5.82;1.35;;;23.80;99.90;;;;;;5038371;28;20029;-75
2023/10/08 13:48:32;;;;;;;10.07;1.40;;;24.00;99.90;;;;;;5054907;28;20047;-75
2023/10/08 13:51:10;;;;;;;5.38;1.70;;;23.80;99.90;;;;;;5037897;28;20654;-75
2023/10/08 13:53:36;;;;;;;8.77;1.33;;;23.80;99.90;;;;;;5046588;28;20095;-75
2023/10/08 13:56:04;;;;;;;7.15;1.27;;;23.70;99.90;;;;;;5035053;28;20102;-75
2023/10/08 13:58:30;;;;;;;5.00;1.40;;;23.70;99.90;;;;;;5034607;28;20040;-75
2023/10/08 14:01:00;;;;;;;7.63;1.50;;;23.50;99.90;;;;;;5045025;28;20048;-75
2023/10/08 14:03:30;;;;;;;7.88;1.23;;;23.70;99.90;;;;;;5038259;28;20052;-75
2023/10/08 14:06:04;;;;;;;5.45;1.10;;;23.80;99.90;;;;;;5053752;28;20123;-75